createdAt,value
2023-03-21T00:02:28.267Z,0.60
2023-03-21T00:05:15.975Z,0.60
2023-03-21T00:08:02.724Z,0.60
2023-03-21T00:10:59.402Z,0.50
2023-03-21T00:13:45.058Z,0.50
2023-03-21T00:16:32.178Z,0.60
2023-03-21T00:19:20.719Z,0.60
2023-03-21T00:22:08.383Z,0.60
2023-03-21T00:24:55.342Z,0.60
2023-03-21T00:27:57.193Z,0.60
2023-03-21T00:30:46.486Z,0.60
2023-03-21T00:33:32.215Z,0.60
2023-03-21T00:36:17.930Z,0.60
2023-03-21T00:39:03.422Z,0.50
2023-03-21T00:41:48.786Z,0.50
2023-03-21T00:44:34.330Z,0.60
2023-03-21T00:47:19.762Z,0.60
2023-03-21T00:50:06.120Z,0.50
2023-03-21T00:52:51.625Z,0.50
2023-03-21T00:55:37.436Z,0.50
2023-03-21T00:58:23.024Z,0.50
2023-03-21T01:01:08.500Z,0.50
2023-03-21T01:03:54.014Z,0.50
2023-03-21T01:06:40.996Z,0.50
2023-03-21T01:09:27.138Z,0.50
2023-03-21T01:12:12.915Z,0.50
2023-03-21T01:14:58.553Z,0.40
2023-03-21T01:17:44.024Z,0.40
2023-03-21T01:20:29.764Z,0.40
2023-03-21T01:23:16.702Z,0.40
2023-03-21T01:26:02.441Z,0.40
2023-03-21T01:28:47.964Z,0.40
2023-03-21T01:31:33.622Z,0.30
2023-03-21T01:34:19.281Z,0.30
2023-03-21T01:37:04.858Z,0.30
2023-03-21T01:39:51.023Z,0.20
2023-03-21T01:42:36.471Z,0.20
2023-03-21T01:46:21.462Z,0.20
2023-03-21T01:49:23.891Z,0.20
2023-03-21T01:52:26.394Z,0.20
2023-03-21T01:55:16.559Z,0.10
2023-03-21T01:58:06.724Z,0.10
2023-03-21T02:00:53.690Z,0.10
2023-03-21T02:03:44.461Z,0.10
2023-03-21T02:07:07.748Z,0.00
2023-03-21T02:09:54.232Z,0.00
2023-03-21T02:12:40.121Z,-0.10
2023-03-21T02:15:27.072Z,-0.10
2023-03-21T02:18:37.017Z,-0.10
2023-03-21T02:22:04.446Z,-0.10
2023-03-21T02:25:51.583Z,-0.10
2023-03-21T02:29:01.603Z,-0.10
2023-03-21T02:32:36.970Z,-0.10
2023-03-21T02:36:13.973Z,-0.10
2023-03-21T02:39:12.740Z,-0.20
2023-03-21T02:42:30.417Z,-0.20
2023-03-21T02:45:22.829Z,-0.30
2023-03-21T02:48:29.353Z,-0.20
2023-03-21T02:51:22.325Z,-0.20
2023-03-21T02:54:35.036Z,-0.20
2023-03-21T02:57:29.206Z,-0.20
2023-03-21T03:00:28.184Z,-0.20
2023-03-21T03:03:28.066Z,-0.20
2023-03-21T03:06:46.398Z,-0.20
2023-03-21T03:10:26.087Z,-0.20
2023-03-21T03:13:51.962Z,-0.20
2023-03-21T03:17:12.032Z,-0.30
2023-03-21T03:20:24.823Z,-0.20
2023-03-21T03:23:45.046Z,-0.30
2023-03-21T03:26:57.541Z,-0.30
2023-03-21T03:29:46.851Z,-0.40
2023-03-21T03:32:46.553Z,-0.40
2023-03-21T03:35:32.436Z,-0.40
2023-03-21T03:38:21.990Z,-0.40
2023-03-21T03:41:22.691Z,-0.40
2023-03-21T03:44:08.925Z,-0.40
2023-03-21T03:47:08.756Z,-0.50
2023-03-21T03:50:02.715Z,-0.50
2023-03-21T03:53:02.831Z,-0.50
2023-03-21T03:55:54.242Z,-0.50
2023-03-21T03:58:45.773Z,-0.60
2023-03-21T04:01:31.340Z,-0.60
2023-03-21T04:04:17.201Z,-0.60
2023-03-21T04:07:03.307Z,-0.60
2023-03-21T04:09:48.983Z,-0.60
2023-03-21T04:12:34.326Z,-0.60
2023-03-21T04:15:20.242Z,-0.60
2023-03-21T04:18:05.816Z,-0.50
2023-03-21T04:20:51.672Z,-0.50
2023-03-21T04:23:37.187Z,-0.50
2023-03-21T04:26:23.170Z,-0.50
2023-03-21T04:29:08.611Z,-0.50
2023-03-21T04:31:54.064Z,-0.40
2023-03-21T04:34:40.444Z,-0.30
2023-03-21T04:37:26.886Z,-0.30
2023-03-21T04:40:12.764Z,-0.30
2023-03-21T04:42:58.328Z,-0.20
2023-03-21T04:45:44.479Z,-0.20
2023-03-21T04:48:30.165Z,-0.10
2023-03-21T04:51:16.995Z,0.00
2023-03-21T04:54:02.668Z,0.00
2023-03-21T04:56:48.548Z,0.10
2023-03-21T04:59:35.074Z,0.10
2023-03-21T05:02:20.526Z,0.20
2023-03-21T05:05:07.430Z,0.20
2023-03-21T05:07:53.079Z,0.30
2023-03-21T05:10:39.426Z,0.40
2023-03-21T05:13:25.335Z,0.40
2023-03-21T05:16:10.778Z,0.50
2023-03-21T05:18:57.942Z,0.50
2023-03-21T05:21:43.589Z,0.60
2023-03-21T05:24:29.154Z,0.80
2023-03-21T05:27:14.633Z,0.90
2023-03-21T05:30:12.365Z,1.00
2023-03-21T05:32:57.868Z,1.20
2023-03-21T05:35:43.295Z,1.30
2023-03-21T05:38:28.947Z,1.40
2023-03-21T05:41:19.207Z,1.60
2023-03-21T05:44:05.227Z,1.70
2023-03-21T05:46:50.950Z,1.80
2023-03-21T05:49:36.398Z,1.90
2023-03-21T05:52:22.026Z,2.00
2023-03-21T05:55:08.168Z,2.20
2023-03-21T05:57:53.901Z,2.30
2023-03-21T06:00:39.425Z,2.50
2023-03-21T06:03:24.823Z,2.60
2023-03-21T06:06:10.816Z,2.70
2023-03-21T06:08:56.276Z,2.80
2023-03-21T06:11:48.431Z,3.10
2023-03-21T06:14:33.936Z,3.20
2023-03-21T06:17:19.143Z,3.40
2023-03-21T06:20:07.287Z,3.70
2023-03-21T06:22:53.165Z,4.20
2023-03-21T06:25:39.171Z,5.00
2023-03-21T06:28:25.340Z,6.20
2023-03-21T06:31:10.879Z,6.70
2023-03-21T06:33:56.924Z,6.70
2023-03-21T06:36:42.486Z,6.40
2023-03-21T06:39:27.828Z,6.60
2023-03-21T06:42:15.036Z,6.40
2023-03-21T06:45:00.878Z,6.10
2023-03-21T06:47:46.365Z,5.90
2023-03-21T06:50:32.151Z,5.90
2023-03-21T06:53:20.748Z,5.90
2023-03-21T06:56:06.732Z,5.90
2023-03-21T06:58:52.141Z,6.00
2023-03-21T07:01:38.748Z,6.10
2023-03-21T07:04:24.236Z,6.10
2023-03-21T07:07:10.357Z,6.30
2023-03-21T07:09:56.405Z,6.40
2023-03-21T07:12:42.164Z,6.50
2023-03-21T07:15:27.658Z,6.60
2023-03-21T07:18:13.052Z,6.70
2023-03-21T07:20:59.068Z,6.90
2023-03-21T07:23:44.715Z,7.00
2023-03-21T07:26:30.599Z,7.20
2023-03-21T07:29:16.097Z,7.30
2023-03-21T07:32:01.607Z,7.40
2023-03-21T07:34:47.674Z,7.50
2023-03-21T07:37:33.497Z,7.70
2023-03-21T07:40:19.305Z,7.80
2023-03-21T07:43:05.473Z,7.90
2023-03-21T07:45:50.832Z,8.00
2023-03-21T07:48:39.406Z,8.10
2023-03-21T07:51:24.806Z,8.20
2023-03-21T07:54:10.107Z,8.40
2023-03-21T07:56:57.287Z,8.50
2023-03-21T07:59:43.257Z,8.70
2023-03-21T08:02:31.703Z,8.90
2023-03-21T08:05:17.180Z,9.20
2023-03-21T08:08:05.317Z,9.40
2023-03-21T08:10:51.078Z,9.50
2023-03-21T08:13:36.624Z,9.70
2023-03-21T08:16:21.918Z,9.80
2023-03-21T08:19:07.474Z,9.90
2023-03-21T08:21:53.623Z,10.00
2023-03-21T08:24:39.194Z,10.20
2023-03-21T08:27:24.648Z,10.30
2023-03-21T08:30:13.688Z,10.40
2023-03-21T08:33:01.586Z,10.50
2023-03-21T08:35:47.825Z,10.50
2023-03-21T08:38:33.802Z,10.60
2023-03-21T08:41:19.955Z,10.70
2023-03-21T08:44:06.630Z,10.80
2023-03-21T08:46:55.161Z,11.00
2023-03-21T08:49:40.778Z,11.10
2023-03-21T08:52:27.981Z,11.20
2023-03-21T08:55:17.279Z,11.20
2023-03-21T08:58:03.191Z,11.40
2023-03-21T09:00:48.922Z,11.50
2023-03-21T09:03:34.354Z,11.70
2023-03-21T09:06:19.960Z,11.90
2023-03-21T09:09:05.975Z,12.10
2023-03-21T09:11:52.595Z,12.20
2023-03-21T09:14:38.474Z,12.40
2023-03-21T09:17:23.938Z,12.60
2023-03-21T09:20:14.062Z,12.90
2023-03-21T09:23:00.234Z,13.00
2023-03-21T09:25:46.168Z,13.10
2023-03-21T09:28:32.799Z,13.40
2023-03-21T09:31:19.392Z,13.70
2023-03-21T09:34:05.794Z,13.80
2023-03-21T09:36:51.163Z,14.00
2023-03-21T09:39:37.531Z,14.30
2023-03-21T09:42:52.336Z,14.30
2023-03-21T09:45:48.603Z,14.60
2023-03-21T09:48:59.917Z,14.80
2023-03-21T09:51:50.195Z,15.00
2023-03-21T09:54:40.721Z,15.20
2023-03-21T09:57:38.401Z,15.40
2023-03-21T10:00:38.782Z,15.90
2023-03-21T10:03:33.296Z,16.60
2023-03-21T10:06:19.353Z,17.50
2023-03-21T10:09:27.428Z,18.70
2023-03-21T10:12:22.599Z,21.30
2023-03-21T10:15:08.812Z,23.60
2023-03-21T10:18:05.297Z,24.60
2023-03-21T10:20:52.044Z,25.80
2023-03-21T10:23:37.707Z,26.90
2023-03-21T10:26:27.207Z,27.60
2023-03-21T10:29:18.107Z,28.40
2023-03-21T10:32:05.165Z,30.10
2023-03-21T10:37:42.928Z,30.70
2023-03-21T10:40:29.300Z,30.10
2023-03-21T10:43:37.214Z,30.70
2023-03-21T10:46:27.239Z,31.40
2023-03-21T10:49:16.345Z,30.80
2023-03-21T10:52:08.591Z,29.80
2023-03-21T10:55:18.204Z,30.50
2023-03-21T10:58:09.148Z,30.70
2023-03-21T11:01:05.633Z,30.50
2023-03-21T11:04:20.724Z,30.60
2023-03-21T11:07:06.910Z,30.00
2023-03-21T11:10:17.203Z,30.50
2023-03-21T11:13:40.828Z,30.50
2023-03-21T11:16:41.281Z,30.30
2023-03-21T11:19:34.086Z,30.00
2023-03-21T11:22:25.338Z,30.00
2023-03-21T11:25:37.366Z,29.90
2023-03-21T11:28:27.221Z,29.40
2023-03-21T11:31:13.324Z,27.30
2023-03-21T11:33:59.421Z,24.90
2023-03-21T11:36:51.353Z,23.30
2023-03-21T11:39:38.696Z,21.70
2023-03-21T11:42:31.161Z,20.70
2023-03-21T11:45:23.287Z,20.40
2023-03-21T11:48:14.384Z,19.90
2023-03-21T11:51:14.863Z,19.70
2023-03-21T11:54:32.654Z,19.80
2023-03-21T11:57:42.631Z,19.50
2023-03-21T12:01:03.940Z,18.70
2023-03-21T12:04:30.597Z,18.60
2023-03-21T12:08:08.384Z,18.70
2023-03-21T12:11:10.727Z,18.60
2023-03-21T12:14:30.525Z,18.60
2023-03-21T12:17:46.326Z,18.60
2023-03-21T12:20:59.274Z,18.60
2023-03-21T12:24:18.761Z,18.50
2023-03-21T12:27:25.106Z,18.50
2023-03-21T12:31:08.031Z,18.40
2023-03-21T12:34:16.579Z,18.40
2023-03-21T12:37:30.792Z,18.20
2023-03-21T12:41:08.983Z,18.00
2023-03-21T12:44:17.989Z,17.90
2023-03-21T12:47:15.071Z,17.90
2023-03-21T12:50:35.594Z,18.00
2023-03-21T12:53:49.554Z,18.00
2023-03-21T12:57:18.156Z,18.10
2023-03-21T13:00:23.991Z,18.00
2023-03-21T13:03:37.408Z,18.00
2023-03-21T13:06:27.679Z,18.10
2023-03-21T13:09:39.789Z,17.90
2023-03-21T13:12:58.725Z,17.60
2023-03-21T13:16:14.147Z,17.40
2023-03-21T13:19:26.662Z,17.30
2023-03-21T13:22:26.617Z,17.30
2023-03-21T13:25:23.736Z,17.20
2023-03-21T13:28:26.055Z,17.40
2023-03-21T13:31:50.630Z,17.40
2023-03-21T13:34:39.667Z,17.30
2023-03-21T13:37:32.660Z,17.30
2023-03-21T13:40:41.858Z,17.00
2023-03-21T13:43:55.660Z,16.80
2023-03-21T13:47:06.930Z,16.60
2023-03-21T13:50:18.544Z,16.50
2023-03-21T13:53:03.742Z,16.30
2023-03-21T13:56:29.173Z,16.10
2023-03-21T13:59:40.229Z,15.80
2023-03-21T14:02:34.455Z,15.60
2023-03-21T14:05:26.496Z,15.50
2023-03-21T14:08:27.877Z,15.40
2023-03-21T14:11:21.646Z,15.20
2023-03-21T14:14:07.416Z,15.20
2023-03-21T14:16:53.708Z,15.20
2023-03-21T14:19:39.595Z,15.10
2023-03-21T14:22:25.081Z,15.10
2023-03-21T14:25:17.494Z,15.00
2023-03-21T14:28:12.674Z,14.90
2023-03-21T14:31:01.615Z,14.80
2023-03-21T14:33:56.270Z,14.70
2023-03-21T14:36:45.749Z,14.60
2023-03-21T14:39:34.499Z,14.50
2023-03-21T14:42:26.633Z,14.40
2023-03-21T14:45:28.625Z,14.50
2023-03-21T14:48:16.883Z,14.30
2023-03-21T14:51:09.992Z,14.30
2023-03-21T14:53:57.773Z,14.20
2023-03-21T14:56:49.113Z,14.20
2023-03-21T14:59:40.364Z,14.10
2023-03-21T15:02:36.007Z,14.00
2023-03-21T15:05:37.928Z,13.70
2023-03-21T15:08:28.886Z,13.60
2023-03-21T15:11:15.457Z,13.40
2023-03-21T15:14:07.122Z,13.20
2023-03-21T15:16:54.831Z,13.10
2023-03-21T15:19:40.186Z,12.90
2023-03-21T15:22:38.627Z,12.90
2023-03-21T15:25:33.149Z,12.80
2023-03-21T15:28:18.604Z,12.60
2023-03-21T15:31:05.947Z,12.50
2023-03-21T15:33:54.075Z,12.40
2023-03-21T15:36:49.313Z,12.30
2023-03-21T15:39:35.698Z,12.30
2023-03-21T15:42:34.345Z,12.20
2023-03-21T15:45:28.202Z,12.10
2023-03-21T15:48:15.672Z,12.00
2023-03-21T15:51:07.818Z,12.00
2023-03-21T15:53:53.842Z,11.90
2023-03-21T15:56:41.325Z,11.90
2023-03-21T15:59:33.292Z,11.90
2023-03-21T16:02:23.153Z,11.80
2023-03-21T16:05:33.913Z,11.80
2023-03-21T16:08:28.530Z,11.80
2023-03-21T16:11:27.744Z,11.70
2023-03-21T16:14:13.504Z,11.70
2023-03-21T16:16:59.027Z,11.60
2023-03-21T16:19:44.375Z,11.60
2023-03-21T16:22:30.772Z,11.60
2023-03-21T16:25:17.311Z,11.50
2023-03-21T16:28:02.857Z,11.50
2023-03-21T16:30:48.332Z,11.40
2023-03-21T16:33:34.025Z,11.40
2023-03-21T16:36:28.218Z,11.40
2023-03-21T16:39:22.026Z,11.30
2023-03-21T16:42:10.363Z,11.30
2023-03-21T16:44:55.871Z,11.30
2023-03-21T16:47:41.836Z,11.20
2023-03-21T16:50:42.528Z,11.20
2023-03-21T16:53:28.058Z,11.20
2023-03-21T16:56:28.048Z,11.10
2023-03-21T16:59:15.040Z,11.10
2023-03-21T17:02:00.492Z,11.00
2023-03-21T17:04:46.547Z,11.00
2023-03-21T17:07:31.856Z,10.90
2023-03-21T17:10:23.100Z,10.90
2023-03-21T17:13:08.578Z,10.90
2023-03-21T17:15:54.141Z,10.80
2023-03-21T17:18:40.384Z,10.80
2023-03-21T17:21:29.330Z,10.80
2023-03-21T17:24:14.923Z,10.80
2023-03-21T17:27:03.223Z,10.80
2023-03-21T17:29:48.973Z,10.70
2023-03-21T17:32:34.937Z,10.70
2023-03-21T17:35:23.301Z,10.70
2023-03-21T17:38:16.292Z,10.70
2023-03-21T17:41:01.783Z,10.60
2023-03-21T17:43:47.991Z,10.60
2023-03-21T17:46:37.118Z,10.60
2023-03-21T17:49:22.944Z,10.60
2023-03-21T17:52:08.424Z,10.50
2023-03-21T17:54:53.936Z,10.50
2023-03-21T17:57:39.465Z,10.40
2023-03-21T18:00:30.929Z,10.40
2023-03-21T18:03:18.521Z,10.40
2023-03-21T18:06:06.600Z,10.30
2023-03-21T18:08:54.612Z,10.30
2023-03-21T18:11:41.306Z,10.20
2023-03-21T18:14:29.136Z,10.10
2023-03-21T18:17:16.267Z,10.10
2023-03-21T18:20:02.096Z,10.00
2023-03-21T18:22:48.091Z,9.90
2023-03-21T18:25:33.868Z,9.90
2023-03-21T18:28:21.871Z,9.80
2023-03-21T18:31:15.723Z,9.60
2023-03-21T18:34:02.725Z,9.60
2023-03-21T18:36:49.671Z,9.50
2023-03-21T18:39:37.229Z,9.40
2023-03-21T18:42:23.218Z,9.40
2023-03-21T18:45:11.482Z,9.30
2023-03-21T18:47:56.923Z,9.30
2023-03-21T18:50:42.299Z,9.30
2023-03-21T18:53:27.800Z,9.20
2023-03-21T18:56:46.586Z,9.20
2023-03-21T18:59:19.967Z,9.20
2023-03-21T19:02:06.397Z,9.10
2023-03-21T19:04:52.291Z,9.10
2023-03-21T19:07:37.752Z,9.10
2023-03-21T19:10:24.276Z,9.00
2023-03-21T19:13:09.733Z,9.00
2023-03-21T19:15:56.179Z,8.90
2023-03-21T19:18:57.683Z,8.90
2023-03-21T19:21:43.856Z,8.80
2023-03-21T19:24:29.405Z,8.80
2023-03-21T19:27:15.355Z,8.70
2023-03-21T19:30:13.443Z,8.70
2023-03-21T19:32:59.888Z,8.60
2023-03-21T19:35:46.535Z,8.60
2023-03-21T19:38:33.747Z,8.60
2023-03-21T19:41:20.413Z,8.60
2023-03-21T19:44:08.009Z,8.60
2023-03-21T19:46:55.061Z,8.60
2023-03-21T19:50:30.805Z,8.50
2023-03-21T19:52:46.501Z,8.50
2023-03-21T19:55:31.991Z,8.50
2023-03-21T19:58:17.617Z,8.50
2023-03-21T20:01:03.443Z,8.50
2023-03-21T20:03:49.306Z,8.50
2023-03-21T20:06:36.933Z,8.50
2023-03-21T20:09:51.216Z,8.40
2023-03-21T20:12:28.822Z,8.30
2023-03-21T20:15:18.375Z,8.30
2023-03-21T20:18:05.797Z,8.30
2023-03-21T20:20:53.296Z,8.20
2023-03-21T20:23:39.137Z,8.20
2023-03-21T20:26:24.860Z,8.20
2023-03-21T20:30:03.831Z,8.20
2023-03-21T20:32:16.496Z,8.20
2023-03-21T20:35:13.729Z,8.20
2023-03-21T20:38:03.499Z,8.10
2023-03-21T20:40:48.806Z,8.10
2023-03-21T20:46:40.315Z,8.10
2023-03-21T20:49:26.192Z,8.00
2023-03-21T20:55:17.869Z,8.10
2023-03-21T20:58:19.495Z,8.10
2023-03-21T21:01:09.012Z,8.10
2023-03-21T21:03:55.116Z,8.10
2023-03-21T21:06:40.603Z,8.10
2023-03-21T21:09:26.124Z,8.00
2023-03-21T21:12:13.769Z,8.10
2023-03-21T21:14:59.926Z,8.00
2023-03-21T21:18:05.567Z,8.00
2023-03-21T21:20:56.122Z,7.90
2023-03-21T21:23:43.461Z,7.90
2023-03-21T21:26:29.285Z,7.90
2023-03-21T21:29:16.561Z,7.90
2023-03-21T21:32:02.142Z,7.80
2023-03-21T21:34:47.797Z,7.80
2023-03-21T21:37:33.287Z,7.70
2023-03-21T21:40:18.886Z,7.70
2023-03-21T21:43:04.188Z,7.70
2023-03-21T21:45:50.890Z,7.70
2023-03-21T21:48:36.561Z,7.70
2023-03-21T21:51:22.302Z,7.60
2023-03-21T21:54:07.944Z,7.70
2023-03-21T21:56:53.550Z,7.70
2023-03-21T21:59:39.051Z,7.60
2023-03-21T22:02:24.496Z,7.60
2023-03-21T22:05:10.412Z,7.60
2023-03-21T22:07:56.504Z,7.50
2023-03-21T22:10:45.746Z,7.50
2023-03-21T22:13:31.201Z,7.40
2023-03-21T22:16:16.545Z,7.40
2023-03-21T22:19:02.028Z,7.30
2023-03-21T22:21:47.307Z,7.20
2023-03-21T22:24:33.417Z,7.10
2023-03-21T22:27:18.914Z,7.10
2023-03-21T22:30:08.207Z,7.00
2023-03-21T22:33:08.520Z,6.90
2023-03-21T22:35:54.890Z,6.90
2023-03-21T22:38:40.511Z,6.80
2023-03-21T22:41:26.326Z,6.80
2023-03-21T22:44:12.681Z,6.70
2023-03-21T22:46:58.248Z,6.60
2023-03-21T22:49:44.444Z,6.50
2023-03-21T22:52:30.000Z,6.50
2023-03-21T22:55:15.505Z,6.40
2023-03-21T22:58:01.141Z,6.40
2023-03-21T23:00:47.368Z,6.30
2023-03-21T23:03:33.125Z,6.30
2023-03-21T23:06:18.725Z,6.30
2023-03-21T23:09:04.349Z,6.30
2023-03-21T23:11:49.807Z,6.30
2023-03-21T23:14:35.274Z,6.30
2023-03-21T23:17:20.570Z,6.30
2023-03-21T23:20:07.880Z,6.20
2023-03-21T23:22:53.512Z,6.20
2023-03-21T23:25:41.396Z,6.20
2023-03-21T23:28:27.877Z,6.20
2023-03-21T23:31:19.080Z,6.30
2023-03-21T23:34:04.676Z,6.30
2023-03-21T23:36:50.314Z,6.30
2023-03-21T23:39:35.642Z,6.40
2023-03-21T23:42:22.762Z,6.40
2023-03-21T23:45:08.989Z,6.40
2023-03-21T23:47:54.958Z,6.50
2023-03-21T23:50:41.397Z,6.50
2023-03-21T23:53:27.434Z,6.50
2023-03-21T23:56:24.329Z,6.50
2023-03-21T23:59:10.216Z,6.50
